sensor_id;sensor_type;location;lat;lon;timestamp;temperature;humidity
37868;DHT22;24011;48.880;9.190;2022-08-06T01:43:44;25.80;46.80
37868;DHT22;24011;48.880;9.190;2022-08-06T01:47:07;25.80;46.80
37868;DHT22;24011;48.880;9.190;2022-08-06T02:05:47;25.80;46.70
37868;DHT22;24011;48.880;9.190;2022-08-06T02:09:24;25.80;46.70
37868;DHT22;24011;48.880;9.190;2022-08-06T02:28:18;25.90;46.70
37868;DHT22;24011;48.880;9.190;2022-08-06T02:31:35;25.90;46.70
37868;DHT22;24011;48.880;9.190;2022-08-06T02:34:59;25.80;46.60
37868;DHT22;24011;48.880;9.190;2022-08-06T02:38:19;25.90;46.70
37868;DHT22;24011;48.880;9.190;2022-08-06T02:41:43;25.80;46.60
37868;DHT22;24011;48.880;9.190;2022-08-06T02:45:19;25.90;46.70
37868;DHT22;24011;48.880;9.190;2022-08-06T02:48:42;25.90;46.70
37868;DHT22;24011;48.880;9.190;2022-08-06T02:52:08;25.80;46.60
37868;DHT22;24011;48.880;9.190;2022-08-06T02:55:42;25.90;46.60
37868;DHT22;24011;48.880;9.190;2022-08-06T02:59:01;25.80;46.60
37868;DHT22;24011;48.880;9.190;2022-08-06T03:02:36;25.90;46.60
37868;DHT22;24011;48.880;9.190;2022-08-06T03:06:01;25.80;46.60
37868;DHT22;24011;48.880;9.190;2022-08-06T03:09:25;25.90;46.60
37868;DHT22;24011;48.880;9.190;2022-08-06T03:12:41;25.90;46.40
37868;DHT22;24011;48.880;9.190;2022-08-06T03:16:01;25.90;46.50
37868;DHT22;24011;48.880;9.190;2022-08-06T03:19:23;25.90;47.00
37868;DHT22;24011;48.880;9.190;2022-08-06T03:22:43;25.90;46.50
37868;DHT22;24011;48.880;9.190;2022-08-06T03:26:00;26.00;46.50
37868;DHT22;24011;48.880;9.190;2022-08-06T03:29:19;26.00;46.50
37868;DHT22;24011;48.880;9.190;2022-08-06T03:32:43;25.90;46.40
37868;DHT22;24011;48.880;9.190;2022-08-06T03:36:24;25.90;46.40
37868;DHT22;24011;48.880;9.190;2022-08-06T03:39:42;26.00;46.50
37868;DHT22;24011;48.880;9.190;2022-08-06T03:43:07;25.90;46.50
37868;DHT22;24011;48.880;9.190;2022-08-06T03:46:37;25.90;46.50
37868;DHT22;24011;48.880;9.190;2022-08-06T03:50:20;25.90;46.40
37868;DHT22;24011;48.880;9.190;2022-08-06T03:53:48;25.90;46.50
37868;DHT22;24011;48.880;9.190;2022-08-06T03:57:18;25.90;46.50
37868;DHT22;24011;48.880;9.190;2022-08-06T04:00:36;25.90;46.50
37868;DHT22;24011;48.880;9.190;2022-08-06T04:04:06;25.90;46.50
37868;DHT22;24011;48.880;9.190;2022-08-06T04:07:24;25.90;46.50
37868;DHT22;24011;48.880;9.190;2022-08-06T04:10:44;25.90;46.50
37868;DHT22;24011;48.880;9.190;2022-08-06T04:14:18;25.90;46.40
37868;DHT22;24011;48.880;9.190;2022-08-06T04:17:44;25.90;46.40
37868;DHT22;24011;48.880;9.190;2022-08-06T04:21:13;25.90;46.40
37868;DHT22;24011;48.880;9.190;2022-08-06T04:25:00;25.90;46.40
37868;DHT22;24011;48.880;9.190;2022-08-06T05:36:37;25.90;46.60
37868;DHT22;24011;48.880;9.190;2022-08-06T05:40:37;25.90;46.60
37868;DHT22;24011;48.880;9.190;2022-08-06T05:44:19;25.90;46.60
37868;DHT22;24011;48.880;9.190;2022-08-06T05:47:49;25.90;46.60
37868;DHT22;24011;48.880;9.190;2022-08-06T05:51:09;25.90;46.50
37868;DHT22;24011;48.880;9.190;2022-08-06T05:58:31;26.00;46.60
37868;DHT22;24011;48.880;9.190;2022-08-06T06:02:19;25.90;46.50
37868;DHT22;24011;48.880;9.190;2022-08-06T06:05:31;25.90;46.40
37868;DHT22;24011;48.880;9.190;2022-08-06T06:09:01;25.90;46.50
37868;DHT22;24011;48.880;9.190;2022-08-06T06:12:37;25.90;46.40
37868;DHT22;24011;48.880;9.190;2022-08-06T06:16:53;26.00;46.50
37868;DHT22;24011;48.880;9.190;2022-08-06T06:20:08;26.00;46.50
37868;DHT22;24011;48.880;9.190;2022-08-06T06:24:02;26.00;46.50
37868;DHT22;24011;48.880;9.190;2022-08-06T06:27:27;26.00;46.50
37868;DHT22;24011;48.880;9.190;2022-08-06T06:31:26;26.00;46.50
37868;DHT22;24011;48.880;9.190;2022-08-06T07:05:54;26.10;46.40
37868;DHT22;24011;48.880;9.190;2022-08-06T07:09:50;26.10;46.30
37868;DHT22;24011;48.880;9.190;2022-08-06T07:13:44;26.10;46.30
37868;DHT22;24011;48.880;9.190;2022-08-06T07:17:50;26.10;46.30
37868;DHT22;24011;48.880;9.190;2022-08-06T07:29:08;26.10;46.20
37868;DHT22;24011;48.880;9.190;2022-08-06T07:33:14;26.20;46.20
37868;DHT22;24011;48.880;9.190;2022-08-06T07:37:02;26.20;46.20
37868;DHT22;24011;48.880;9.190;2022-08-06T07:41:08;26.20;46.10
37868;DHT22;24011;48.880;9.190;2022-08-06T10:43:35;26.70;45.30
37868;DHT22;24011;48.880;9.190;2022-08-06T10:47:11;26.80;45.30
37868;DHT22;24011;48.880;9.190;2022-08-06T10:50:44;26.80;45.30
37868;DHT22;24011;48.880;9.190;2022-08-06T10:54:23;26.80;45.30
37868;DHT22;24011;48.880;9.190;2022-08-06T10:57:38;26.80;45.30
37868;DHT22;24011;48.880;9.190;2022-08-06T11:01:13;26.80;45.30
37868;DHT22;24011;48.880;9.190;2022-08-06T11:04:33;26.80;45.30
37868;DHT22;24011;48.880;9.190;2022-08-06T11:12:23;26.80;45.30
37868;DHT22;24011;48.880;9.190;2022-08-06T11:15:47;26.80;45.30
37868;DHT22;24011;48.880;9.190;2022-08-06T11:19:15;26.80;45.30
37868;DHT22;24011;48.880;9.190;2022-08-06T11:22:45;26.80;45.30
37868;DHT22;24011;48.880;9.190;2022-08-06T11:26:33;26.80;45.30
37868;DHT22;24011;48.880;9.190;2022-08-06T11:33:21;26.80;45.30
37868;DHT22;24011;48.880;9.190;2022-08-06T11:37:23;26.80;45.20
37868;DHT22;24011;48.880;9.190;2022-08-06T11:41:09;26.80;45.20
37868;DHT22;24011;48.880;9.190;2022-08-06T11:44:46;26.80;45.20
37868;DHT22;24011;48.880;9.190;2022-08-06T11:48:33;26.90;45.20
37868;DHT22;24011;48.880;9.190;2022-08-06T11:52:38;26.90;45.20
37868;DHT22;24011;48.880;9.190;2022-08-06T11:59:23;26.90;45.30
37868;DHT22;24011;48.880;9.190;2022-08-06T12:02:52;26.90;45.20
37868;DHT22;24011;48.880;9.190;2022-08-06T12:06:29;26.80;45.20
37868;DHT22;24011;48.880;9.190;2022-08-06T12:09:58;26.90;45.20
37868;DHT22;24011;48.880;9.190;2022-08-06T12:17:03;26.90;45.20
37868;DHT22;24011;48.880;9.190;2022-08-06T12:20:37;26.90;45.20
37868;DHT22;24011;48.880;9.190;2022-08-06T12:24:01;26.90;45.20
37868;DHT22;24011;48.880;9.190;2022-08-06T12:27:51;26.90;45.20
37868;DHT22;24011;48.880;9.190;2022-08-06T12:31:27;26.90;45.10
37868;DHT22;24011;48.880;9.190;2022-08-06T12:34:51;26.90;45.10
37868;DHT22;24011;48.880;9.190;2022-08-06T12:38:09;26.90;45.10
37868;DHT22;24011;48.880;9.190;2022-08-06T12:41:37;26.90;45.00
37868;DHT22;24011;48.880;9.190;2022-08-06T12:49:07;27.00;45.10
37868;DHT22;24011;48.880;9.190;2022-08-06T12:52:33;26.90;45.00
37868;DHT22;24011;48.880;9.190;2022-08-06T12:55:52;27.00;45.00
37868;DHT22;24011;48.880;9.190;2022-08-06T12:59:21;27.00;45.10
37868;DHT22;24011;48.880;9.190;2022-08-06T13:02:37;27.00;45.00
37868;DHT22;24011;48.880;9.190;2022-08-06T13:06:09;27.00;45.00
37868;DHT22;24011;48.880;9.190;2022-08-06T13:09:28;27.00;45.00
37868;DHT22;24011;48.880;9.190;2022-08-06T13:13:16;27.00;45.00
37868;DHT22;24011;48.880;9.190;2022-08-06T13:16:49;27.00;45.00
37868;DHT22;24011;48.880;9.190;2022-08-06T13:20:37;27.00;45.00
37868;DHT22;24011;48.880;9.190;2022-08-06T13:24:04;27.00;45.00
37868;DHT22;24011;48.880;9.190;2022-08-06T13:27:49;27.00;44.90
37868;DHT22;24011;48.880;9.190;2022-08-06T13:31:19;27.00;44.90
37868;DHT22;24011;48.880;9.190;2022-08-06T13:34:52;27.00;44.90
37868;DHT22;24011;48.880;9.190;2022-08-06T13:38:01;27.00;44.90
37868;DHT22;24011;48.880;9.190;2022-08-06T13:41:31;27.10;45.00
37868;DHT22;24011;48.880;9.190;2022-08-06T13:44:55;27.00;44.90
37868;DHT22;24011;48.880;9.190;2022-08-06T13:48:43;27.10;44.90
37868;DHT22;24011;48.880;9.190;2022-08-06T13:52:01;27.10;45.00
37868;DHT22;24011;48.880;9.190;2022-08-06T13:55:28;27.10;45.00
37868;DHT22;24011;48.880;9.190;2022-08-06T13:58:49;27.10;44.90
37868;DHT22;24011;48.880;9.190;2022-08-06T14:02:25;27.10;44.90
37868;DHT22;24011;48.880;9.190;2022-08-06T14:05:52;27.10;44.90
37868;DHT22;24011;48.880;9.190;2022-08-06T14:09:58;27.10;44.80
37868;DHT22;24011;48.880;9.190;2022-08-06T16:17:37;27.30;44.80
37868;DHT22;24011;48.880;9.190;2022-08-06T16:21:14;27.30;44.80
37868;DHT22;24011;48.880;9.190;2022-08-06T16:24:31;27.30;44.80
37868;DHT22;24011;48.880;9.190;2022-08-06T16:27:55;27.30;44.80
37868;DHT22;24011;48.880;9.190;2022-08-06T16:31:09;27.30;44.70
37868;DHT22;24011;48.880;9.190;2022-08-06T16:34:43;27.30;44.80
37868;DHT22;24011;48.880;9.190;2022-08-06T16:38:03;27.30;44.80
37868;DHT22;24011;48.880;9.190;2022-08-06T16:41:37;27.30;44.80
37868;DHT22;24011;48.880;9.190;2022-08-06T16:44:57;27.30;44.80
37868;DHT22;24011;48.880;9.190;2022-08-06T16:48:21;27.30;44.80
37868;DHT22;24011;48.880;9.190;2022-08-06T16:51:43;27.30;44.80
37868;DHT22;24011;48.880;9.190;2022-08-06T16:55:21;27.30;44.80
37868;DHT22;24011;48.880;9.190;2022-08-06T16:58:37;27.30;44.80
37868;DHT22;24011;48.880;9.190;2022-08-06T17:02:01;27.30;44.80
37868;DHT22;24011;48.880;9.190;2022-08-06T17:05:21;27.30;44.80
37868;DHT22;24011;48.880;9.190;2022-08-06T17:08:43;27.30;44.80
37868;DHT22;24011;48.880;9.190;2022-08-06T17:12:01;27.30;44.80
37868;DHT22;24011;48.880;9.190;2022-08-06T17:15:21;27.30;44.80
37868;DHT22;24011;48.880;9.190;2022-08-06T17:18:37;27.30;44.80
37868;DHT22;24011;48.880;9.190;2022-08-06T17:22:01;27.30;44.70
37868;DHT22;24011;48.880;9.190;2022-08-06T17:25:25;27.30;44.80
37868;DHT22;24011;48.880;9.190;2022-08-06T17:28:51;27.30;44.80
37868;DHT22;24011;48.880;9.190;2022-08-06T17:32:27;27.30;44.80
37868;DHT22;24011;48.880;9.190;2022-08-06T17:36:01;27.30;44.80
37868;DHT22;24011;48.880;9.190;2022-08-06T17:39:31;27.30;44.80
37868;DHT22;24011;48.880;9.190;2022-08-06T17:42:53;27.30;44.80
37868;DHT22;24011;48.880;9.190;2022-08-06T17:46:13;27.30;44.80
37868;DHT22;24011;48.880;9.190;2022-08-06T17:49:33;27.30;44.80
37868;DHT22;24011;48.880;9.190;2022-08-06T17:52:45;27.30;44.80
37868;DHT22;24011;48.880;9.190;2022-08-06T17:56:33;27.30;44.80
37868;DHT22;24011;48.880;9.190;2022-08-06T18:00:14;27.30;44.80
37868;DHT22;24011;48.880;9.190;2022-08-06T18:03:50;27.20;44.80
37868;DHT22;24011;48.880;9.190;2022-08-06T18:07:15;27.30;44.80
37868;DHT22;24011;48.880;9.190;2022-08-06T18:10:58;27.30;44.90
37868;DHT22;24011;48.880;9.190;2022-08-06T18:14:16;27.30;44.90
37868;DHT22;24011;48.880;9.190;2022-08-06T18:17:44;27.30;44.90
37868;DHT22;24011;48.880;9.190;2022-08-06T18:21:02;27.30;44.90
37868;DHT22;24011;48.880;9.190;2022-08-06T18:24:22;27.30;44.80
37868;DHT22;24011;48.880;9.190;2022-08-06T18:27:52;27.20;44.80
37868;DHT22;24011;48.880;9.190;2022-08-06T18:31:34;27.30;44.90
37868;DHT22;24011;48.880;9.190;2022-08-06T18:34:56;27.30;44.90
37868;DHT22;24011;48.880;9.190;2022-08-06T18:38:34;27.30;44.90
37868;DHT22;24011;48.880;9.190;2022-08-06T18:41:56;27.20;44.90
37868;DHT22;24011;48.880;9.190;2022-08-06T18:45:16;27.30;44.90
37868;DHT22;24011;48.880;9.190;2022-08-06T18:48:46;27.30;44.90
37868;DHT22;24011;48.880;9.190;2022-08-06T18:52:26;27.30;44.90
37868;DHT22;24011;48.880;9.190;2022-08-06T18:55:44;27.30;44.90
37868;DHT22;24011;48.880;9.190;2022-08-06T18:59:04;27.30;44.90
37868;DHT22;24011;48.880;9.190;2022-08-06T19:02:34;27.20;44.90
37868;DHT22;24011;48.880;9.190;2022-08-06T19:05:56;27.20;44.90
37868;DHT22;24011;48.880;9.190;2022-08-06T19:09:28;27.20;44.90
37868;DHT22;24011;48.880;9.190;2022-08-06T19:12:44;27.20;45.00
37868;DHT22;24011;48.880;9.190;2022-08-06T19:16:04;27.20;45.00
37868;DHT22;24011;48.880;9.190;2022-08-06T19:19:28;27.20;45.00
37868;DHT22;24011;48.880;9.190;2022-08-06T19:22:46;27.20;45.00
37868;DHT22;24011;48.880;9.190;2022-08-06T19:25:52;27.20;45.10
37868;DHT22;24011;48.880;9.190;2022-08-06T19:28:56;27.20;45.10
37868;DHT22;24011;48.880;9.190;2022-08-06T19:32:10;27.10;45.00
37868;DHT22;24011;48.880;9.190;2022-08-06T19:35:14;27.10;45.00
37868;DHT22;24011;48.880;9.190;2022-08-06T19:38:28;27.10;45.10
37868;DHT22;24011;48.880;9.190;2022-08-06T19:41:34;27.10;45.10
37868;DHT22;24011;48.880;9.190;2022-08-06T19:44:34;27.10;45.10
37868;DHT22;24011;48.880;9.190;2022-08-06T19:48:10;27.10;45.10
37868;DHT22;24011;48.880;9.190;2022-08-06T19:51:35;27.10;45.10
37868;DHT22;24011;48.880;9.190;2022-08-06T19:55:04;27.10;45.10
37868;DHT22;24011;48.880;9.190;2022-08-06T19:58:35;27.10;45.20
37868;DHT22;24011;48.880;9.190;2022-08-06T20:02:04;27.10;45.10
37868;DHT22;24011;48.880;9.190;2022-08-06T20:05:29;27.10;45.20
37868;DHT22;24011;48.880;9.190;2022-08-06T20:08:52;27.10;45.20
37868;DHT22;24011;48.880;9.190;2022-08-06T20:12:17;27.10;45.30
37868;DHT22;24011;48.880;9.190;2022-08-06T20:56:56;26.90;45.40
37868;DHT22;24011;48.880;9.190;2022-08-06T21:00:17;27.00;45.50
37868;DHT22;24011;48.880;9.190;2022-08-06T21:03:47;26.90;45.40
37868;DHT22;24011;48.880;9.190;2022-08-06T21:07:20;26.90;45.40
37868;DHT22;24011;48.880;9.190;2022-08-06T21:10:41;26.80;42.60
37868;DHT22;24011;48.880;9.190;2022-08-06T21:13:59;26.60;40.20
37868;DHT22;24011;48.880;9.190;2022-08-06T21:17:29;26.50;38.70
37868;DHT22;24011;48.880;9.190;2022-08-06T21:20:44;26.40;37.60
37868;DHT22;24011;48.880;9.190;2022-08-06T21:23:50;26.30;36.50
37868;DHT22;24011;48.880;9.190;2022-08-06T21:27:08;26.20;35.90
37868;DHT22;24011;48.880;9.190;2022-08-06T21:30:38;26.20;35.40
37868;DHT22;24011;48.880;9.190;2022-08-06T21:34:02;26.10;35.00
37868;DHT22;24011;48.880;9.190;2022-08-06T21:37:29;26.00;34.50
37868;DHT22;24011;48.880;9.190;2022-08-06T21:40:41;26.00;34.20
37868;DHT22;24011;48.880;9.190;2022-08-06T21:44:41;25.90;33.70
37868;DHT22;24011;48.880;9.190;2022-08-06T21:48:03;25.90;33.40
37868;DHT22;24011;48.880;9.190;2022-08-06T21:51:33;25.80;33.30
37868;DHT22;24011;48.880;9.190;2022-08-06T21:54:50;25.80;33.30
37868;DHT22;24011;48.880;9.190;2022-08-06T21:58:17;25.70;33.10
37868;DHT22;24011;48.880;9.190;2022-08-06T22:01:15;25.70;32.80
37868;DHT22;24011;48.880;9.190;2022-08-06T22:04:39;25.70;32.70
37868;DHT22;24011;48.880;9.190;2022-08-06T22:08:05;25.60;32.60
37868;DHT22;24011;48.880;9.190;2022-08-06T22:11:14;25.60;32.30
37868;DHT22;24011;48.880;9.190;2022-08-06T22:14:42;25.50;32.40
37868;DHT22;24011;48.880;9.190;2022-08-06T22:17:54;25.50;32.40
37868;DHT22;24011;48.880;9.190;2022-08-06T22:21:09;25.40;32.10
37868;DHT22;24011;48.880;9.190;2022-08-06T22:24:33;25.40;32.20
37868;DHT22;24011;48.880;9.190;2022-08-06T22:27:54;25.40;32.30
37868;DHT22;24011;48.880;9.190;2022-08-06T22:31:27;25.30;32.00
37868;DHT22;24011;48.880;9.190;2022-08-06T22:34:45;25.30;32.10
37868;DHT22;24011;48.880;9.190;2022-08-06T22:38:12;25.30;32.10
37868;DHT22;24011;48.880;9.190;2022-08-06T22:41:30;25.20;32.10
37868;DHT22;24011;48.880;9.190;2022-08-06T22:45:18;25.20;32.30
37868;DHT22;24011;48.880;9.190;2022-08-06T22:48:42;25.20;32.20
37868;DHT22;24011;48.880;9.190;2022-08-06T22:52:15;25.20;32.30
37868;DHT22;24011;48.880;9.190;2022-08-06T22:55:57;25.10;32.80
37868;DHT22;24011;48.880;9.190;2022-08-06T22:59:21;25.10;32.10
37868;DHT22;24011;48.880;9.190;2022-08-06T23:02:57;25.00;32.00
37868;DHT22;24011;48.880;9.190;2022-08-06T23:06:12;25.00;32.00
37868;DHT22;24011;48.880;9.190;2022-08-06T23:09:21;25.00;32.20
37868;DHT22;24011;48.880;9.190;2022-08-06T23:12:54;25.00;32.20
37868;DHT22;24011;48.880;9.190;2022-08-06T23:16:24;25.00;32.20
37868;DHT22;24011;48.880;9.190;2022-08-06T23:19:54;24.90;32.20
37868;DHT22;24011;48.880;9.190;2022-08-06T23:23:15;24.90;32.00
37868;DHT22;24011;48.880;9.190;2022-08-06T23:26:36;24.90;32.00
37868;DHT22;24011;48.880;9.190;2022-08-06T23:30:12;24.90;31.90
37868;DHT22;24011;48.880;9.190;2022-08-06T23:33:42;24.80;31.90
37868;DHT22;24011;48.880;9.190;2022-08-06T23:37:16;24.80;31.90
37868;DHT22;24011;48.880;9.190;2022-08-06T23:40:34;24.80;31.70
37868;DHT22;24011;48.880;9.190;2022-08-06T23:43:52;24.80;31.80
37868;DHT22;24011;48.880;9.190;2022-08-06T23:47:00;24.80;31.80
37868;DHT22;24011;48.880;9.190;2022-08-06T23:50:20;24.70;31.70
37868;DHT22;24011;48.880;9.190;2022-08-06T23:53:28;24.70;31.60
37868;DHT22;24011;48.880;9.190;2022-08-06T23:56:46;24.70;31.70
37868;DHT22;24011;48.880;9.190;2022-08-06T23:59:52;24.70;31.70
